sensor_id;sensor_type;location;lat;lon;timestamp;P1;durP1;ratioP1;P2;durP2;ratioP2
21138;SDS011;10727;43.600;1.444;2024-03-02T00:00:28;11.80;;;7.25;;
21138;SDS011;10727;43.600;1.444;2024-03-02T00:03:35;13.35;;;7.97;;
21138;SDS011;10727;43.600;1.444;2024-03-02T00:06:41;11.93;;;7.45;;
21138;SDS011;10727;43.600;1.444;2024-03-02T00:09:46;14.20;;;8.02;;
21138;SDS011;10727;43.600;1.444;2024-03-02T00:12:51;13.18;;;7.80;;
21138;SDS011;10727;43.600;1.444;2024-03-02T00:15:58;12.18;;;8.02;;
21138;SDS011;10727;43.600;1.444;2024-03-02T00:19:05;12.23;;;7.43;;
21138;SDS011;10727;43.600;1.444;2024-03-02T00:22:11;12.90;;;8.15;;
21138;SDS011;10727;43.600;1.444;2024-03-02T00:25:16;13.27;;;8.63;;
21138;SDS011;10727;43.600;1.444;2024-03-02T00:28:22;13.48;;;8.85;;
21138;SDS011;10727;43.600;1.444;2024-03-02T00:31:28;14.38;;;8.65;;
21138;SDS011;10727;43.600;1.444;2024-03-02T00:34:35;13.77;;;8.65;;
21138;SDS011;10727;43.600;1.444;2024-03-02T00:37:40;11.88;;;8.38;;
21138;SDS011;10727;43.600;1.444;2024-03-02T00:40:47;13.75;;;7.95;;
21138;SDS011;10727;43.600;1.444;2024-03-02T00:43:56;11.70;;;7.45;;
21138;SDS011;10727;43.600;1.444;2024-03-02T00:47:02;12.10;;;7.18;;
21138;SDS011;10727;43.600;1.444;2024-03-02T00:50:09;13.30;;;7.00;;
21138;SDS011;10727;43.600;1.444;2024-03-02T00:53:15;10.90;;;6.43;;
21138;SDS011;10727;43.600;1.444;2024-03-02T00:56:22;9.70;;;6.03;;
21138;SDS011;10727;43.600;1.444;2024-03-02T00:59:27;9.95;;;5.80;;
21138;SDS011;10727;43.600;1.444;2024-03-02T01:02:32;10.02;;;5.85;;
21138;SDS011;10727;43.600;1.444;2024-03-02T01:05:42;9.43;;;5.82;;
21138;SDS011;10727;43.600;1.444;2024-03-02T01:08:47;10.70;;;6.18;;
21138;SDS011;10727;43.600;1.444;2024-03-02T01:11:54;11.88;;;6.50;;
21138;SDS011;10727;43.600;1.444;2024-03-02T01:14:59;9.18;;;6.70;;
21138;SDS011;10727;43.600;1.444;2024-03-02T01:18:06;9.45;;;6.20;;
21138;SDS011;10727;43.600;1.444;2024-03-02T01:21:13;9.15;;;6.13;;
21138;SDS011;10727;43.600;1.444;2024-03-02T01:24:18;10.15;;;6.30;;
21138;SDS011;10727;43.600;1.444;2024-03-02T01:27:24;8.85;;;6.25;;
21138;SDS011;10727;43.600;1.444;2024-03-02T01:30:30;11.45;;;6.18;;
21138;SDS011;10727;43.600;1.444;2024-03-02T01:33:35;10.38;;;6.20;;
21138;SDS011;10727;43.600;1.444;2024-03-02T01:36:42;10.70;;;5.63;;
21138;SDS011;10727;43.600;1.444;2024-03-02T01:39:48;9.20;;;6.28;;
21138;SDS011;10727;43.600;1.444;2024-03-02T01:42:53;10.57;;;6.20;;
21138;SDS011;10727;43.600;1.444;2024-03-02T01:46:01;9.43;;;5.70;;
21138;SDS011;10727;43.600;1.444;2024-03-02T01:49:06;9.10;;;6.45;;
21138;SDS011;10727;43.600;1.444;2024-03-02T01:52:13;9.27;;;5.88;;
21138;SDS011;10727;43.600;1.444;2024-03-02T01:55:18;8.73;;;5.78;;
21138;SDS011;10727;43.600;1.444;2024-03-02T01:58:24;10.82;;;6.10;;
21138;SDS011;10727;43.600;1.444;2024-03-02T02:01:30;9.90;;;6.00;;
21138;SDS011;10727;43.600;1.444;2024-03-02T02:04:35;9.98;;;5.90;;
21138;SDS011;10727;43.600;1.444;2024-03-02T02:07:42;8.65;;;5.60;;
21138;SDS011;10727;43.600;1.444;2024-03-02T02:10:47;8.45;;;5.07;;
21138;SDS011;10727;43.600;1.444;2024-03-02T02:13:52;7.35;;;5.22;;
21138;SDS011;10727;43.600;1.444;2024-03-02T02:16:58;7.97;;;5.07;;
21138;SDS011;10727;43.600;1.444;2024-03-02T02:20:04;7.38;;;4.97;;
21138;SDS011;10727;43.600;1.444;2024-03-02T02:23:12;9.60;;;5.38;;
21138;SDS011;10727;43.600;1.444;2024-03-02T02:26:17;8.02;;;5.05;;
21138;SDS011;10727;43.600;1.444;2024-03-02T02:29:23;9.52;;;5.57;;
21138;SDS011;10727;43.600;1.444;2024-03-02T02:32:28;8.50;;;5.38;;
21138;SDS011;10727;43.600;1.444;2024-03-02T02:35:33;8.95;;;5.47;;
21138;SDS011;10727;43.600;1.444;2024-03-02T02:38:42;6.55;;;4.88;;
21138;SDS011;10727;43.600;1.444;2024-03-02T02:41:48;8.60;;;4.90;;
21138;SDS011;10727;43.600;1.444;2024-03-02T02:44:53;7.78;;;5.00;;
21138;SDS011;10727;43.600;1.444;2024-03-02T02:47:58;8.63;;;5.18;;
21138;SDS011;10727;43.600;1.444;2024-03-02T02:51:05;10.40;;;5.00;;
21138;SDS011;10727;43.600;1.444;2024-03-02T02:54:12;8.32;;;5.40;;
21138;SDS011;10727;43.600;1.444;2024-03-02T02:57:17;11.13;;;5.75;;
21138;SDS011;10727;43.600;1.444;2024-03-02T03:00:23;10.52;;;5.57;;
21138;SDS011;10727;43.600;1.444;2024-03-02T03:03:28;8.50;;;5.30;;
21138;SDS011;10727;43.600;1.444;2024-03-02T03:06:33;10.27;;;5.97;;
21138;SDS011;10727;43.600;1.444;2024-03-02T03:09:40;9.13;;;5.60;;
21138;SDS011;10727;43.600;1.444;2024-03-02T03:12:46;7.60;;;5.63;;
21138;SDS011;10727;43.600;1.444;2024-03-02T03:15:52;9.73;;;5.70;;
21138;SDS011;10727;43.600;1.444;2024-03-02T03:18:57;9.00;;;5.50;;
21138;SDS011;10727;43.600;1.444;2024-03-02T03:22:02;7.97;;;5.10;;
21138;SDS011;10727;43.600;1.444;2024-03-02T03:25:09;7.88;;;4.90;;
21138;SDS011;10727;43.600;1.444;2024-03-02T03:28:15;9.50;;;5.63;;
21138;SDS011;10727;43.600;1.444;2024-03-02T03:31:21;7.32;;;4.82;;
21138;SDS011;10727;43.600;1.444;2024-03-02T03:34:26;10.40;;;4.97;;
21138;SDS011;10727;43.600;1.444;2024-03-02T03:37:32;8.05;;;4.75;;
21138;SDS011;10727;43.600;1.444;2024-03-02T03:40:38;7.50;;;4.38;;
21138;SDS011;10727;43.600;1.444;2024-03-02T03:43:43;10.85;;;4.93;;
21138;SDS011;10727;43.600;1.444;2024-03-02T03:46:49;7.57;;;4.38;;
21138;SDS011;10727;43.600;1.444;2024-03-02T03:49:54;6.82;;;4.38;;
21138;SDS011;10727;43.600;1.444;2024-03-02T03:52:59;7.78;;;4.72;;
21138;SDS011;10727;43.600;1.444;2024-03-02T03:56:06;8.05;;;4.25;;
21138;SDS011;10727;43.600;1.444;2024-03-02T03:59:12;8.00;;;4.43;;
21138;SDS011;10727;43.600;1.444;2024-03-02T04:02:17;8.93;;;4.60;;
21138;SDS011;10727;43.600;1.444;2024-03-02T04:05:22;8.43;;;4.95;;
21138;SDS011;10727;43.600;1.444;2024-03-02T04:08:27;7.68;;;5.05;;
21138;SDS011;10727;43.600;1.444;2024-03-02T04:11:34;6.78;;;4.50;;
21138;SDS011;10727;43.600;1.444;2024-03-02T04:14:39;9.38;;;4.93;;
21138;SDS011;10727;43.600;1.444;2024-03-02T04:17:45;7.18;;;4.55;;
21138;SDS011;10727;43.600;1.444;2024-03-02T04:20:51;6.25;;;4.60;;
21138;SDS011;10727;43.600;1.444;2024-03-02T04:23:56;5.72;;;4.15;;
21138;SDS011;10727;43.600;1.444;2024-03-02T04:27:04;6.30;;;4.18;;
21138;SDS011;10727;43.600;1.444;2024-03-02T04:30:09;9.25;;;4.50;;
21138;SDS011;10727;43.600;1.444;2024-03-02T04:33:15;6.88;;;4.03;;
21138;SDS011;10727;43.600;1.444;2024-03-02T04:36:21;9.90;;;4.53;;
21138;SDS011;10727;43.600;1.444;2024-03-02T04:39:26;8.30;;;4.55;;
21138;SDS011;10727;43.600;1.444;2024-03-02T04:42:33;8.68;;;4.43;;
21138;SDS011;10727;43.600;1.444;2024-03-02T04:45:38;9.82;;;4.40;;
21138;SDS011;10727;43.600;1.444;2024-03-02T04:48:43;7.13;;;4.30;;
21138;SDS011;10727;43.600;1.444;2024-03-02T04:51:49;6.07;;;4.13;;
21138;SDS011;10727;43.600;1.444;2024-03-02T04:54:54;6.13;;;3.92;;
21138;SDS011;10727;43.600;1.444;2024-03-02T04:58:33;6.45;;;4.18;;
21138;SDS011;10727;43.600;1.444;2024-03-02T05:01:39;5.70;;;3.97;;
21138;SDS011;10727;43.600;1.444;2024-03-02T05:04:44;10.10;;;4.18;;
21138;SDS011;10727;43.600;1.444;2024-03-02T05:07:51;5.78;;;3.38;;
21138;SDS011;10727;43.600;1.444;2024-03-02T05:10:56;8.77;;;3.50;;
21138;SDS011;10727;43.600;1.444;2024-03-02T05:14:23;5.68;;;3.70;;
21138;SDS011;10727;43.600;1.444;2024-03-02T05:17:28;5.78;;;3.60;;
21138;SDS011;10727;43.600;1.444;2024-03-02T05:20:33;6.35;;;3.47;;
21138;SDS011;10727;43.600;1.444;2024-03-02T05:23:39;6.20;;;3.70;;
21138;SDS011;10727;43.600;1.444;2024-03-02T05:26:45;5.93;;;3.72;;
21138;SDS011;10727;43.600;1.444;2024-03-02T05:29:51;6.78;;;3.72;;
21138;SDS011;10727;43.600;1.444;2024-03-02T05:32:57;6.82;;;3.90;;
21138;SDS011;10727;43.600;1.444;2024-03-02T05:36:02;5.80;;;3.78;;
21138;SDS011;10727;43.600;1.444;2024-03-02T05:39:08;7.68;;;3.83;;
21138;SDS011;10727;43.600;1.444;2024-03-02T05:42:14;4.40;;;3.33;;
21138;SDS011;10727;43.600;1.444;2024-03-02T05:45:21;6.10;;;3.50;;
21138;SDS011;10727;43.600;1.444;2024-03-02T05:48:25;7.03;;;4.15;;
21138;SDS011;10727;43.600;1.444;2024-03-02T05:51:31;6.82;;;3.75;;
21138;SDS011;10727;43.600;1.444;2024-03-02T05:54:36;7.53;;;3.92;;
21138;SDS011;10727;43.600;1.444;2024-03-02T05:57:41;7.40;;;3.50;;
21138;SDS011;10727;43.600;1.444;2024-03-02T06:01:03;4.60;;;3.20;;
21138;SDS011;10727;43.600;1.444;2024-03-02T06:04:10;7.38;;;3.30;;
21138;SDS011;10727;43.600;1.444;2024-03-02T06:07:15;4.75;;;3.40;;
21138;SDS011;10727;43.600;1.444;2024-03-02T06:10:20;5.53;;;3.50;;
21138;SDS011;10727;43.600;1.444;2024-03-02T06:13:25;7.47;;;3.33;;
21138;SDS011;10727;43.600;1.444;2024-03-02T06:16:32;5.30;;;3.55;;
21138;SDS011;10727;43.600;1.444;2024-03-02T06:19:37;5.72;;;3.17;;
21138;SDS011;10727;43.600;1.444;2024-03-02T06:22:43;6.70;;;3.60;;
21138;SDS011;10727;43.600;1.444;2024-03-02T06:25:48;6.50;;;3.15;;
21138;SDS011;10727;43.600;1.444;2024-03-02T06:28:53;5.03;;;2.83;;
21138;SDS011;10727;43.600;1.444;2024-03-02T06:32:00;4.93;;;3.08;;
21138;SDS011;10727;43.600;1.444;2024-03-02T06:35:06;4.97;;;3.00;;
21138;SDS011;10727;43.600;1.444;2024-03-02T06:38:13;5.45;;;2.85;;
21138;SDS011;10727;43.600;1.444;2024-03-02T06:41:18;5.30;;;2.83;;
21138;SDS011;10727;43.600;1.444;2024-03-02T06:44:23;4.10;;;2.92;;
21138;SDS011;10727;43.600;1.444;2024-03-02T06:47:30;6.38;;;2.92;;
21138;SDS011;10727;43.600;1.444;2024-03-02T06:50:35;6.90;;;3.00;;
21138;SDS011;10727;43.600;1.444;2024-03-02T06:53:41;5.40;;;3.03;;
21138;SDS011;10727;43.600;1.444;2024-03-02T06:56:46;3.88;;;2.70;;
21138;SDS011;10727;43.600;1.444;2024-03-02T06:59:52;4.40;;;2.70;;
21138;SDS011;10727;43.600;1.444;2024-03-02T07:03:03;4.40;;;2.85;;
21138;SDS011;10727;43.600;1.444;2024-03-02T07:06:08;5.47;;;2.67;;
21138;SDS011;10727;43.600;1.444;2024-03-02T07:09:13;6.15;;;2.78;;
21138;SDS011;10727;43.600;1.444;2024-03-02T07:12:18;3.88;;;2.60;;
21138;SDS011;10727;43.600;1.444;2024-03-02T07:15:23;6.15;;;2.63;;
21138;SDS011;10727;43.600;1.444;2024-03-02T07:18:55;4.47;;;2.60;;
21138;SDS011;10727;43.600;1.444;2024-03-02T07:22:00;4.57;;;2.45;;
21138;SDS011;10727;43.600;1.444;2024-03-02T07:25:05;5.53;;;2.45;;
21138;SDS011;10727;43.600;1.444;2024-03-02T07:28:11;4.65;;;2.50;;
21138;SDS011;10727;43.600;1.444;2024-03-02T07:31:17;4.03;;;2.38;;
21138;SDS011;10727;43.600;1.444;2024-03-02T07:34:24;6.13;;;2.90;;
21138;SDS011;10727;43.600;1.444;2024-03-02T07:37:29;3.42;;;2.38;;
21138;SDS011;10727;43.600;1.444;2024-03-02T07:40:34;5.85;;;2.70;;
21138;SDS011;10727;43.600;1.444;2024-03-02T07:43:40;5.25;;;2.50;;
21138;SDS011;10727;43.600;1.444;2024-03-02T07:46:46;4.93;;;2.60;;
21138;SDS011;10727;43.600;1.444;2024-03-02T07:49:54;4.78;;;2.80;;
21138;SDS011;10727;43.600;1.444;2024-03-02T07:52:59;5.47;;;2.72;;
21138;SDS011;10727;43.600;1.444;2024-03-02T07:56:05;5.43;;;2.80;;
21138;SDS011;10727;43.600;1.444;2024-03-02T07:59:11;5.07;;;3.00;;
21138;SDS011;10727;43.600;1.444;2024-03-02T08:02:16;4.00;;;2.78;;
21138;SDS011;10727;43.600;1.444;2024-03-02T08:05:23;4.03;;;2.55;;
21138;SDS011;10727;43.600;1.444;2024-03-02T08:08:28;7.47;;;2.30;;
21138;SDS011;10727;43.600;1.444;2024-03-02T08:11:34;4.95;;;2.60;;
21138;SDS011;10727;43.600;1.444;2024-03-02T08:14:40;4.95;;;2.85;;
21138;SDS011;10727;43.600;1.444;2024-03-02T08:17:45;5.53;;;3.00;;
21138;SDS011;10727;43.600;1.444;2024-03-02T08:20:54;6.00;;;2.92;;
21138;SDS011;10727;43.600;1.444;2024-03-02T08:24:01;4.57;;;2.83;;
21138;SDS011;10727;43.600;1.444;2024-03-02T08:27:06;5.90;;;2.78;;
21138;SDS011;10727;43.600;1.444;2024-03-02T08:30:12;5.38;;;3.25;;
21138;SDS011;10727;43.600;1.444;2024-03-02T08:33:18;5.28;;;2.72;;
21138;SDS011;10727;43.600;1.444;2024-03-02T08:36:24;5.75;;;2.92;;
21138;SDS011;10727;43.600;1.444;2024-03-02T08:39:30;6.80;;;3.90;;
21138;SDS011;10727;43.600;1.444;2024-03-02T08:42:35;7.85;;;4.95;;
21138;SDS011;10727;43.600;1.444;2024-03-02T08:45:41;7.50;;;4.68;;
21138;SDS011;10727;43.600;1.444;2024-03-02T08:48:47;6.75;;;3.95;;
21138;SDS011;10727;43.600;1.444;2024-03-02T08:51:53;6.15;;;3.20;;
21138;SDS011;10727;43.600;1.444;2024-03-02T08:54:59;5.97;;;2.75;;
21138;SDS011;10727;43.600;1.444;2024-03-02T08:58:05;8.45;;;2.90;;
21138;SDS011;10727;43.600;1.444;2024-03-02T09:01:10;4.63;;;3.42;;
21138;SDS011;10727;43.600;1.444;2024-03-02T09:04:16;4.95;;;3.40;;
21138;SDS011;10727;43.600;1.444;2024-03-02T09:07:23;7.75;;;4.30;;
21138;SDS011;10727;43.600;1.444;2024-03-02T09:10:29;6.63;;;3.50;;
21138;SDS011;10727;43.600;1.444;2024-03-02T09:13:34;6.50;;;3.42;;
21138;SDS011;10727;43.600;1.444;2024-03-02T09:16:40;7.45;;;3.10;;
21138;SDS011;10727;43.600;1.444;2024-03-02T09:19:45;9.25;;;3.00;;
21138;SDS011;10727;43.600;1.444;2024-03-02T09:22:52;9.70;;;3.33;;
21138;SDS011;10727;43.600;1.444;2024-03-02T09:25:57;5.95;;;3.13;;
21138;SDS011;10727;43.600;1.444;2024-03-02T09:29:02;8.00;;;3.00;;
21138;SDS011;10727;43.600;1.444;2024-03-02T09:32:08;7.78;;;2.53;;
21138;SDS011;10727;43.600;1.444;2024-03-02T09:35:13;6.60;;;2.65;;
21138;SDS011;10727;43.600;1.444;2024-03-02T09:38:20;7.53;;;2.60;;
21138;SDS011;10727;43.600;1.444;2024-03-02T09:41:26;8.20;;;2.60;;
21138;SDS011;10727;43.600;1.444;2024-03-02T09:44:31;6.47;;;2.40;;
21138;SDS011;10727;43.600;1.444;2024-03-02T09:47:37;12.95;;;2.60;;
21138;SDS011;10727;43.600;1.444;2024-03-02T09:50:43;8.20;;;2.65;;
21138;SDS011;10727;43.600;1.444;2024-03-02T09:53:49;6.40;;;2.83;;
21138;SDS011;10727;43.600;1.444;2024-03-02T09:56:56;9.73;;;3.67;;
21138;SDS011;10727;43.600;1.444;2024-03-02T10:00:01;6.45;;;2.92;;
21138;SDS011;10727;43.600;1.444;2024-03-02T10:03:11;4.82;;;2.58;;
21138;SDS011;10727;43.600;1.444;2024-03-02T10:06:20;8.30;;;2.33;;
21138;SDS011;10727;43.600;1.444;2024-03-02T10:09:30;9.05;;;3.58;;
21138;SDS011;10727;43.600;1.444;2024-03-02T10:12:35;7.70;;;2.80;;
21138;SDS011;10727;43.600;1.444;2024-03-02T10:15:41;8.80;;;2.88;;
21138;SDS011;10727;43.600;1.444;2024-03-02T10:18:46;7.97;;;3.53;;
21138;SDS011;10727;43.600;1.444;2024-03-02T10:21:51;7.47;;;2.85;;
21138;SDS011;10727;43.600;1.444;2024-03-02T10:24:58;9.95;;;4.30;;
21138;SDS011;10727;43.600;1.444;2024-03-02T10:28:04;7.13;;;3.35;;
21138;SDS011;10727;43.600;1.444;2024-03-02T10:31:10;13.38;;;2.88;;
21138;SDS011;10727;43.600;1.444;2024-03-02T10:34:15;9.50;;;2.70;;
21138;SDS011;10727;43.600;1.444;2024-03-02T10:37:21;8.68;;;3.00;;
21138;SDS011;10727;43.600;1.444;2024-03-02T10:40:27;8.02;;;2.80;;
21138;SDS011;10727;43.600;1.444;2024-03-02T10:43:33;8.52;;;2.50;;
21138;SDS011;10727;43.600;1.444;2024-03-02T10:46:38;6.60;;;2.20;;
21138;SDS011;10727;43.600;1.444;2024-03-02T10:49:43;9.68;;;2.47;;
21138;SDS011;10727;43.600;1.444;2024-03-02T10:52:49;7.68;;;2.90;;
21138;SDS011;10727;43.600;1.444;2024-03-02T10:55:57;7.68;;;2.38;;
21138;SDS011;10727;43.600;1.444;2024-03-02T10:59:06;7.93;;;2.53;;
21138;SDS011;10727;43.600;1.444;2024-03-02T11:02:17;8.15;;;2.60;;
21138;SDS011;10727;43.600;1.444;2024-03-02T11:05:26;10.00;;;3.15;;
21138;SDS011;10727;43.600;1.444;2024-03-02T11:08:33;8.10;;;2.67;;
21138;SDS011;10727;43.600;1.444;2024-03-02T11:11:40;6.35;;;3.40;;
21138;SDS011;10727;43.600;1.444;2024-03-02T11:14:48;10.55;;;2.70;;
21138;SDS011;10727;43.600;1.444;2024-03-02T11:17:56;8.88;;;2.42;;
21138;SDS011;10727;43.600;1.444;2024-03-02T11:21:02;6.93;;;2.35;;
21138;SDS011;10727;43.600;1.444;2024-03-02T11:31:01;6.80;;;2.08;;
21138;SDS011;10727;43.600;1.444;2024-03-02T11:34:16;5.72;;;2.28;;
21138;SDS011;10727;43.600;1.444;2024-03-02T11:37:22;14.48;;;3.00;;
21138;SDS011;10727;43.600;1.444;2024-03-02T11:40:29;11.13;;;2.80;;
21138;SDS011;10727;43.600;1.444;2024-03-02T11:43:37;4.95;;;2.30;;
21138;SDS011;10727;43.600;1.444;2024-03-02T11:46:46;6.53;;;2.40;;
21138;SDS011;10727;43.600;1.444;2024-03-02T11:49:44;7.60;;;2.65;;
21138;SDS011;10727;43.600;1.444;2024-03-02T11:52:50;9.82;;;2.45;;
21138;SDS011;10727;43.600;1.444;2024-03-02T11:55:55;7.07;;;2.60;;
21138;SDS011;10727;43.600;1.444;2024-03-02T11:59:01;10.75;;;2.72;;
21138;SDS011;10727;43.600;1.444;2024-03-02T12:02:13;8.23;;;2.60;;
21138;SDS011;10727;43.600;1.444;2024-03-02T12:05:19;8.25;;;2.92;;
21138;SDS011;10727;43.600;1.444;2024-03-02T12:08:26;7.80;;;2.33;;
21138;SDS011;10727;43.600;1.444;2024-03-02T12:11:31;8.38;;;2.70;;
21138;SDS011;10727;43.600;1.444;2024-03-02T12:14:37;7.10;;;2.70;;
21138;SDS011;10727;43.600;1.444;2024-03-02T12:17:44;8.10;;;2.80;;
21138;SDS011;10727;43.600;1.444;2024-03-02T12:20:49;7.40;;;2.80;;
21138;SDS011;10727;43.600;1.444;2024-03-02T12:23:55;7.80;;;2.22;;
21138;SDS011;10727;43.600;1.444;2024-03-02T12:27:01;8.75;;;3.05;;
21138;SDS011;10727;43.600;1.444;2024-03-02T12:30:06;7.22;;;2.95;;
21138;SDS011;10727;43.600;1.444;2024-03-02T12:33:15;9.68;;;2.92;;
21138;SDS011;10727;43.600;1.444;2024-03-02T12:36:22;8.20;;;3.05;;
21138;SDS011;10727;43.600;1.444;2024-03-02T12:39:27;8.57;;;2.78;;
21138;SDS011;10727;43.600;1.444;2024-03-02T12:42:33;11.15;;;3.63;;
21138;SDS011;10727;43.600;1.444;2024-03-02T12:45:39;5.93;;;2.58;;
21138;SDS011;10727;43.600;1.444;2024-03-02T12:48:45;9.02;;;3.13;;
21138;SDS011;10727;43.600;1.444;2024-03-02T12:51:51;7.75;;;2.92;;
21138;SDS011;10727;43.600;1.444;2024-03-02T12:54:57;7.78;;;3.10;;
21138;SDS011;10727;43.600;1.444;2024-03-02T12:58:02;11.10;;;3.20;;
21138;SDS011;10727;43.600;1.444;2024-03-02T13:01:07;6.80;;;2.70;;
21138;SDS011;10727;43.600;1.444;2024-03-02T13:04:15;7.15;;;2.55;;
21138;SDS011;10727;43.600;1.444;2024-03-02T13:07:20;7.53;;;2.22;;
21138;SDS011;10727;43.600;1.444;2024-03-02T13:10:27;6.82;;;2.30;;
21138;SDS011;10727;43.600;1.444;2024-03-02T13:13:32;8.50;;;3.15;;
21138;SDS011;10727;43.600;1.444;2024-03-02T13:16:38;8.82;;;4.20;;
21138;SDS011;10727;43.600;1.444;2024-03-02T13:19:52;10.63;;;3.75;;
21138;SDS011;10727;43.600;1.444;2024-03-02T13:22:57;8.52;;;2.78;;
21138;SDS011;10727;43.600;1.444;2024-03-02T13:26:03;8.10;;;2.97;;
21138;SDS011;10727;43.600;1.444;2024-03-02T13:29:08;4.43;;;2.53;;
21138;SDS011;10727;43.600;1.444;2024-03-02T13:32:15;7.45;;;2.60;;
21138;SDS011;10727;43.600;1.444;2024-03-02T13:35:25;5.32;;;2.00;;
21138;SDS011;10727;43.600;1.444;2024-03-02T13:38:30;5.50;;;2.22;;
21138;SDS011;10727;43.600;1.444;2024-03-02T13:41:35;5.88;;;2.50;;
21138;SDS011;10727;43.600;1.444;2024-03-02T13:44:41;8.60;;;2.50;;
21138;SDS011;10727;43.600;1.444;2024-03-02T13:47:49;12.75;;;2.80;;
21138;SDS011;10727;43.600;1.444;2024-03-02T13:50:57;5.18;;;1.95;;
21138;SDS011;10727;43.600;1.444;2024-03-02T13:54:03;6.50;;;2.55;;
21138;SDS011;10727;43.600;1.444;2024-03-02T13:57:09;4.70;;;2.28;;
21138;SDS011;10727;43.600;1.444;2024-03-02T14:00:15;7.82;;;2.22;;
21138;SDS011;10727;43.600;1.444;2024-03-02T14:03:21;6.50;;;2.47;;
21138;SDS011;10727;43.600;1.444;2024-03-02T14:06:27;5.68;;;1.95;;
21138;SDS011;10727;43.600;1.444;2024-03-02T14:09:33;5.00;;;2.38;;
21138;SDS011;10727;43.600;1.444;2024-03-02T14:12:38;8.48;;;2.42;;
21138;SDS011;10727;43.600;1.444;2024-03-02T14:15:43;5.80;;;2.00;;
21138;SDS011;10727;43.600;1.444;2024-03-02T14:18:48;6.35;;;2.25;;
21138;SDS011;10727;43.600;1.444;2024-03-02T14:21:56;4.70;;;2.05;;
21138;SDS011;10727;43.600;1.444;2024-03-02T14:25:02;4.70;;;2.28;;
21138;SDS011;10727;43.600;1.444;2024-03-02T14:28:07;5.30;;;2.08;;
21138;SDS011;10727;43.600;1.444;2024-03-02T14:31:13;7.45;;;2.35;;
21138;SDS011;10727;43.600;1.444;2024-03-02T14:34:18;4.10;;;1.95;;
21138;SDS011;10727;43.600;1.444;2024-03-02T14:37:24;7.50;;;2.10;;
21138;SDS011;10727;43.600;1.444;2024-03-02T14:40:30;6.63;;;2.10;;
21138;SDS011;10727;43.600;1.444;2024-03-02T14:43:35;9.80;;;2.30;;
21138;SDS011;10727;43.600;1.444;2024-03-02T14:46:41;6.63;;;2.05;;
21138;SDS011;10727;43.600;1.444;2024-03-02T14:49:46;4.53;;;2.13;;
21138;SDS011;10727;43.600;1.444;2024-03-02T14:52:53;7.10;;;2.10;;
21138;SDS011;10727;43.600;1.444;2024-03-02T14:56:01;6.40;;;2.67;;
21138;SDS011;10727;43.600;1.444;2024-03-02T14:59:06;7.22;;;2.28;;
21138;SDS011;10727;43.600;1.444;2024-03-02T15:02:11;6.00;;;2.08;;
21138;SDS011;10727;43.600;1.444;2024-03-02T15:05:17;9.88;;;2.63;;
21138;SDS011;10727;43.600;1.444;2024-03-02T15:08:24;6.82;;;2.72;;
21138;SDS011;10727;43.600;1.444;2024-03-02T15:11:29;6.90;;;2.40;;
21138;SDS011;10727;43.600;1.444;2024-03-02T15:14:36;9.93;;;2.70;;
21138;SDS011;10727;43.600;1.444;2024-03-02T15:17:43;14.40;;;6.88;;
21138;SDS011;10727;43.600;1.444;2024-03-02T15:20:48;6.22;;;2.90;;
21138;SDS011;10727;43.600;1.444;2024-03-02T15:23:55;5.50;;;2.35;;
21138;SDS011;10727;43.600;1.444;2024-03-02T15:27:01;6.15;;;2.80;;
21138;SDS011;10727;43.600;1.444;2024-03-02T15:30:08;6.45;;;2.10;;
21138;SDS011;10727;43.600;1.444;2024-03-02T15:33:13;6.30;;;2.40;;
21138;SDS011;10727;43.600;1.444;2024-03-02T15:36:21;5.72;;;2.00;;
21138;SDS011;10727;43.600;1.444;2024-03-02T15:39:27;3.35;;;1.88;;
21138;SDS011;10727;43.600;1.444;2024-03-02T15:42:33;4.07;;;2.10;;
21138;SDS011;10727;43.600;1.444;2024-03-02T15:45:38;5.25;;;2.15;;
21138;SDS011;10727;43.600;1.444;2024-03-02T15:48:44;5.78;;;2.00;;
21138;SDS011;10727;43.600;1.444;2024-03-02T15:51:48;5.03;;;1.92;;
21138;SDS011;10727;43.600;1.444;2024-03-02T15:54:55;5.70;;;2.35;;
21138;SDS011;10727;43.600;1.444;2024-03-02T15:58:01;5.10;;;2.17;;
21138;SDS011;10727;43.600;1.444;2024-03-02T16:01:09;7.18;;;4.28;;
21138;SDS011;10727;43.600;1.444;2024-03-02T16:04:14;6.50;;;2.05;;
21138;SDS011;10727;43.600;1.444;2024-03-02T16:07:20;5.40;;;2.17;;
21138;SDS011;10727;43.600;1.444;2024-03-02T16:10:27;5.13;;;2.20;;
21138;SDS011;10727;43.600;1.444;2024-03-02T16:13:33;4.63;;;2.13;;
21138;SDS011;10727;43.600;1.444;2024-03-02T16:16:38;5.80;;;2.30;;
21138;SDS011;10727;43.600;1.444;2024-03-02T16:19:44;4.43;;;2.00;;
21138;SDS011;10727;43.600;1.444;2024-03-02T16:22:50;4.68;;;2.28;;
21138;SDS011;10727;43.600;1.444;2024-03-02T16:25:56;5.93;;;2.00;;
21138;SDS011;10727;43.600;1.444;2024-03-02T16:29:01;7.78;;;2.20;;
21138;SDS011;10727;43.600;1.444;2024-03-02T16:32:07;5.07;;;2.13;;
21138;SDS011;10727;43.600;1.444;2024-03-02T16:35:12;4.38;;;1.98;;
21138;SDS011;10727;43.600;1.444;2024-03-02T16:38:18;3.85;;;1.80;;
21138;SDS011;10727;43.600;1.444;2024-03-02T16:41:26;4.85;;;2.10;;
21138;SDS011;10727;43.600;1.444;2024-03-02T16:44:35;4.78;;;2.20;;
21138;SDS011;10727;43.600;1.444;2024-03-02T16:47:41;6.03;;;2.20;;
21138;SDS011;10727;43.600;1.444;2024-03-02T16:50:46;3.85;;;2.15;;
21138;SDS011;10727;43.600;1.444;2024-03-02T16:53:52;4.18;;;2.03;;
21138;SDS011;10727;43.600;1.444;2024-03-02T16:56:59;6.88;;;2.13;;
21138;SDS011;10727;43.600;1.444;2024-03-02T17:00:05;5.45;;;2.20;;
21138;SDS011;10727;43.600;1.444;2024-03-02T17:03:11;6.50;;;2.28;;
21138;SDS011;10727;43.600;1.444;2024-03-02T17:06:16;4.97;;;1.90;;
21138;SDS011;10727;43.600;1.444;2024-03-02T17:09:21;3.97;;;1.98;;
21138;SDS011;10727;43.600;1.444;2024-03-02T17:12:28;5.15;;;2.35;;
21138;SDS011;10727;43.600;1.444;2024-03-02T17:15:33;5.18;;;2.30;;
21138;SDS011;10727;43.600;1.444;2024-03-02T17:18:39;6.50;;;2.63;;
21138;SDS011;10727;43.600;1.444;2024-03-02T17:21:44;5.78;;;2.72;;
21138;SDS011;10727;43.600;1.444;2024-03-02T17:24:49;6.45;;;3.20;;
21138;SDS011;10727;43.600;1.444;2024-03-02T17:27:57;7.30;;;2.83;;
21138;SDS011;10727;43.600;1.444;2024-03-02T17:31:22;5.38;;;2.60;;
21138;SDS011;10727;43.600;1.444;2024-03-02T17:34:27;7.85;;;2.75;;
21138;SDS011;10727;43.600;1.444;2024-03-02T17:37:33;6.90;;;2.97;;
21138;SDS011;10727;43.600;1.444;2024-03-02T17:40:40;5.95;;;3.38;;
21138;SDS011;10727;43.600;1.444;2024-03-02T17:43:47;6.57;;;2.78;;
21138;SDS011;10727;43.600;1.444;2024-03-02T17:46:53;6.22;;;3.20;;
21138;SDS011;10727;43.600;1.444;2024-03-02T17:49:58;6.10;;;3.40;;
21138;SDS011;10727;43.600;1.444;2024-03-02T17:53:04;6.57;;;3.13;;
21138;SDS011;10727;43.600;1.444;2024-03-02T17:56:09;6.93;;;3.60;;
21138;SDS011;10727;43.600;1.444;2024-03-02T17:59:16;4.78;;;3.00;;
21138;SDS011;10727;43.600;1.444;2024-03-02T18:02:21;6.30;;;2.95;;
21138;SDS011;10727;43.600;1.444;2024-03-02T18:05:26;5.72;;;2.72;;
21138;SDS011;10727;43.600;1.444;2024-03-02T18:08:31;7.75;;;3.45;;
21138;SDS011;10727;43.600;1.444;2024-03-02T18:11:37;10.68;;;3.63;;
21138;SDS011;10727;43.600;1.444;2024-03-02T18:14:44;7.18;;;3.40;;
21138;SDS011;10727;43.600;1.444;2024-03-02T18:17:49;7.07;;;3.00;;
21138;SDS011;10727;43.600;1.444;2024-03-02T18:20:54;7.10;;;3.53;;
21138;SDS011;10727;43.600;1.444;2024-03-02T18:23:59;7.95;;;4.00;;
21138;SDS011;10727;43.600;1.444;2024-03-02T18:27:05;9.65;;;4.00;;
21138;SDS011;10727;43.600;1.444;2024-03-02T18:30:13;7.20;;;3.88;;
21138;SDS011;10727;43.600;1.444;2024-03-02T18:33:22;8.88;;;4.15;;
21138;SDS011;10727;43.600;1.444;2024-03-02T18:36:27;7.18;;;3.63;;
21138;SDS011;10727;43.600;1.444;2024-03-02T18:39:32;6.40;;;2.63;;
21138;SDS011;10727;43.600;1.444;2024-03-02T18:42:38;2.97;;;1.92;;
21138;SDS011;10727;43.600;1.444;2024-03-02T18:45:45;3.75;;;2.00;;